createdAt,value
2019-05-19T00:00:55.944Z,180.27
2019-05-19T00:03:24.524Z,184.70
2019-05-19T00:05:52.826Z,177.83
2019-05-19T00:08:21.586Z,173.50
2019-05-19T00:10:50.176Z,177.80
2019-05-19T00:13:18.855Z,168.17
2019-05-19T00:15:47.146Z,182.70
2019-05-19T00:18:15.455Z,191.23
2019-05-19T00:20:44.395Z,210.70
2019-05-19T00:23:12.708Z,156.00
2019-05-19T00:25:41.276Z,158.53
2019-05-19T00:28:09.947Z,163.40
2019-05-19T00:30:38.306Z,157.60
2019-05-19T00:33:06.919Z,156.90
2019-05-19T00:35:35.250Z,154.17
2019-05-19T00:38:03.870Z,153.40
2019-05-19T00:40:32.200Z,163.90
2019-05-19T00:43:00.588Z,169.30
2019-05-19T00:45:28.915Z,170.13
2019-05-19T00:47:57.510Z,166.87
2019-05-19T00:50:25.827Z,164.97
2019-05-19T00:52:54.450Z,165.67
2019-05-19T00:55:23.043Z,164.00
2019-05-19T00:57:51.402Z,159.00
2019-05-19T01:00:20.001Z,161.07
2019-05-19T01:02:48.605Z,163.90
2019-05-19T01:05:16.968Z,159.03
2019-05-19T01:07:45.547Z,157.67
2019-05-19T01:10:13.870Z,154.03
2019-05-19T01:12:42.528Z,156.77
2019-05-19T01:15:10.840Z,150.67
2019-05-19T01:17:39.215Z,152.00
2019-05-19T01:20:07.855Z,154.30
2019-05-19T01:22:36.551Z,145.87
2019-05-19T01:25:06.380Z,150.30
2019-05-19T01:27:34.721Z,148.50
2019-05-19T01:30:05.343Z,147.57
2019-05-19T01:32:33.730Z,142.63
2019-05-19T01:35:02.431Z,140.70
2019-05-19T01:37:30.783Z,141.97
2019-05-19T01:39:59.133Z,141.53
2019-05-19T01:42:27.707Z,143.43
2019-05-19T01:44:56.466Z,134.37
2019-05-19T01:47:24.779Z,133.33
2019-05-19T01:49:53.828Z,129.93
2019-05-19T01:52:22.112Z,131.07
2019-05-19T01:54:50.430Z,134.97
2019-05-19T01:57:18.823Z,131.30
2019-05-19T01:59:47.375Z,132.83
2019-05-19T02:02:15.772Z,127.87
2019-05-19T02:04:44.410Z,130.57
2019-05-19T02:07:12.904Z,126.13
2019-05-19T02:09:41.573Z,123.33
2019-05-19T02:12:09.918Z,122.53
2019-05-19T02:14:38.488Z,116.80
2019-05-19T02:17:06.807Z,107.90
2019-05-19T02:19:35.787Z,129.53
2019-05-19T02:22:04.109Z,122.13
2019-05-19T02:24:32.780Z,120.87
2019-05-19T02:27:01.078Z,115.57
2019-05-19T02:29:29.734Z,104.80
2019-05-19T02:31:58.041Z,108.27
2019-05-19T02:34:26.795Z,104.07
2019-05-19T02:36:55.788Z,101.80
2019-05-19T02:39:24.372Z,92.50
2019-05-19T02:41:53.076Z,86.33
2019-05-19T02:44:21.482Z,103.03
2019-05-19T02:46:50.030Z,122.03
2019-05-19T02:49:18.496Z,109.83
2019-05-19T02:51:47.500Z,110.33
2019-05-19T02:54:15.807Z,102.47
2019-05-19T02:56:44.406Z,108.53
2019-05-19T02:59:13.543Z,100.43
2019-05-19T03:02:01.928Z,97.50
2019-05-19T03:04:30.684Z,93.03
2019-05-19T03:06:59.085Z,103.57
2019-05-19T03:09:27.664Z,89.33
2019-05-19T03:12:15.825Z,93.37
2019-05-19T03:14:44.403Z,97.20
2019-05-19T03:17:12.727Z,91.37
2019-05-19T03:19:42.667Z,94.20
2019-05-19T03:22:13.974Z,97.00
2019-05-19T03:24:42.258Z,100.30
2019-05-19T03:27:10.907Z,93.97
2019-05-19T03:29:40.850Z,92.63
2019-05-19T03:32:13.556Z,93.93
2019-05-19T03:34:41.938Z,95.10
2019-05-19T03:37:10.565Z,86.73
2019-05-19T03:39:38.875Z,85.50
2019-05-19T03:42:10.410Z,86.17
2019-05-19T03:44:37.551Z,79.67
2019-05-19T03:47:05.927Z,84.23
2019-05-19T03:49:34.516Z,80.60
2019-05-19T03:52:02.824Z,83.97
2019-05-19T03:54:31.128Z,77.90
2019-05-19T03:56:59.849Z,80.17
2019-05-19T03:59:28.137Z,71.77
2019-05-19T04:01:56.443Z,79.83
2019-05-19T04:04:25.079Z,76.70
2019-05-19T04:06:53.571Z,73.67
2019-05-19T04:09:21.875Z,71.83
2019-05-19T04:11:50.176Z,70.83
2019-05-19T04:14:18.529Z,71.80
2019-05-19T04:16:48.468Z,73.43
2019-05-19T04:19:16.784Z,73.57
2019-05-19T04:21:49.236Z,69.20
2019-05-19T04:24:15.810Z,64.90
2019-05-19T04:26:44.169Z,71.33
2019-05-19T04:29:12.469Z,67.80
2019-05-19T04:31:40.756Z,64.30
2019-05-19T04:34:09.173Z,63.87
2019-05-19T04:36:37.460Z,60.43
2019-05-19T04:39:06.304Z,58.50
2019-05-19T04:41:34.709Z,59.90
2019-05-19T04:44:03.022Z,56.70
2019-05-19T04:46:31.394Z,71.43
2019-05-19T04:49:00.104Z,74.77
2019-05-19T04:51:28.385Z,60.43
2019-05-19T04:53:56.687Z,69.00
2019-05-19T04:56:25.034Z,58.70
2019-05-19T04:58:53.720Z,51.47
2019-05-19T05:01:22.016Z,48.00
2019-05-19T05:03:50.758Z,46.33
2019-05-19T05:06:19.477Z,45.47
2019-05-19T05:08:48.055Z,46.90
2019-05-19T05:11:16.342Z,47.23
2019-05-19T05:13:44.647Z,44.27
2019-05-19T05:16:13.215Z,44.50
2019-05-19T05:18:41.575Z,46.47
2019-05-19T05:21:09.955Z,45.53
2019-05-19T05:23:38.532Z,48.53
2019-05-19T05:26:06.841Z,44.80
2019-05-19T05:28:35.223Z,44.60
2019-05-19T05:31:03.527Z,44.13
2019-05-19T05:33:32.150Z,44.33
2019-05-19T05:36:00.447Z,44.83
2019-05-19T05:38:29.011Z,43.40
2019-05-19T05:40:57.596Z,41.67
2019-05-19T05:43:25.881Z,43.63
2019-05-19T05:45:54.190Z,42.37
2019-05-19T05:48:23.002Z,41.17
2019-05-19T05:50:51.321Z,40.90
2019-05-19T05:53:19.619Z,39.40
2019-05-19T05:55:48.175Z,39.70
2019-05-19T05:58:16.760Z,38.37
2019-05-19T06:00:45.346Z,37.30
2019-05-19T06:03:13.926Z,36.97
2019-05-19T06:05:42.240Z,36.50
2019-05-19T06:08:10.546Z,34.57
2019-05-19T06:10:38.826Z,35.53
2019-05-19T06:13:07.151Z,33.60
2019-05-19T06:15:35.720Z,33.17
2019-05-19T06:18:04.006Z,31.97
2019-05-19T06:20:32.579Z,31.90
2019-05-19T06:23:00.876Z,33.13
2019-05-19T06:25:29.264Z,31.20
2019-05-19T06:27:57.790Z,32.83
2019-05-19T06:30:26.411Z,31.73
2019-05-19T06:32:56.353Z,32.43
2019-05-19T06:35:24.695Z,29.13
2019-05-19T06:37:53.088Z,31.03
2019-05-19T06:40:21.406Z,30.97
2019-05-19T06:42:49.772Z,29.23
2019-05-19T06:45:18.056Z,29.47
2019-05-19T06:47:46.700Z,30.30
2019-05-19T06:50:14.987Z,28.40
2019-05-19T06:52:43.285Z,27.43
2019-05-19T06:55:11.575Z,28.37
2019-05-19T06:57:39.905Z,26.93
2019-05-19T07:00:08.328Z,26.97
2019-05-19T07:02:36.997Z,27.70
2019-05-19T07:05:06.339Z,27.33
2019-05-19T07:07:34.707Z,27.37
2019-05-19T07:10:03.871Z,26.57
2019-05-19T07:12:32.180Z,28.40
2019-05-19T07:15:00.813Z,26.77
2019-05-19T07:17:29.121Z,24.50
2019-05-19T07:19:57.402Z,26.77
2019-05-19T07:22:26.100Z,26.87
2019-05-19T07:24:54.403Z,27.07
2019-05-19T07:27:24.351Z,24.80
2019-05-19T07:29:52.647Z,24.60
2019-05-19T07:32:21.408Z,24.33
2019-05-19T07:34:49.720Z,26.53
2019-05-19T07:37:18.272Z,23.70
2019-05-19T07:39:46.870Z,25.10
2019-05-19T07:42:15.152Z,24.10
2019-05-19T07:44:45.318Z,23.97
2019-05-19T07:47:13.735Z,24.53
2019-05-19T07:49:42.331Z,27.97
2019-05-19T07:52:10.901Z,34.00
2019-05-19T07:54:39.590Z,61.30
2019-05-19T07:57:07.884Z,72.87
2019-05-19T07:59:36.191Z,69.33
2019-05-19T08:02:05.228Z,60.97
2019-05-19T08:04:33.541Z,63.37
2019-05-19T08:07:01.845Z,64.87
2019-05-19T08:09:30.468Z,57.00
2019-05-19T08:11:59.051Z,55.97
2019-05-19T08:14:27.350Z,53.10
2019-05-19T08:16:55.636Z,52.50
2019-05-19T08:19:24.291Z,52.47
2019-05-19T08:21:52.984Z,59.43
2019-05-19T08:24:21.568Z,81.60
2019-05-19T08:26:50.151Z,103.90
2019-05-19T08:29:18.835Z,79.27
2019-05-19T08:31:47.202Z,84.47
2019-05-19T08:34:15.563Z,82.03
2019-05-19T08:36:43.871Z,79.20
2019-05-19T08:39:12.460Z,75.73
2019-05-19T08:41:41.234Z,73.60
2019-05-19T08:44:09.526Z,71.60
2019-05-19T08:46:38.105Z,104.10
2019-05-19T08:49:06.708Z,167.27
2019-05-19T08:51:35.371Z,88.03
2019-05-19T08:54:14.484Z,116.90
2019-05-19T08:56:33.985Z,103.07
2019-05-19T08:59:02.559Z,107.50
2019-05-19T09:01:31.442Z,105.77
2019-05-19T09:04:00.237Z,106.03
2019-05-19T09:06:28.557Z,105.50
2019-05-19T09:08:56.933Z,100.80
2019-05-19T09:11:25.219Z,96.73
2019-05-19T09:13:53.854Z,98.57
2019-05-19T09:16:22.160Z,99.20
2019-05-19T09:18:50.812Z,107.17
2019-05-19T09:21:19.124Z,204.87
2019-05-19T09:23:47.453Z,152.57
2019-05-19T09:26:15.744Z,145.70
2019-05-19T09:28:44.077Z,131.17
2019-05-19T09:31:12.404Z,125.50
2019-05-19T09:33:40.723Z,122.90
2019-05-19T09:36:09.085Z,120.17
2019-05-19T09:38:37.405Z,119.13
2019-05-19T09:41:06.175Z,120.40
2019-05-19T09:43:34.809Z,117.50
2019-05-19T09:46:03.221Z,118.03
2019-05-19T09:48:31.886Z,116.57
2019-05-19T09:51:00.384Z,104.43
2019-05-19T09:53:28.714Z,112.63
2019-05-19T09:55:57.433Z,109.73
2019-05-19T09:58:26.024Z,139.57
2019-05-19T10:00:54.428Z,117.47
2019-05-19T10:03:23.075Z,140.13
2019-05-19T10:05:51.667Z,144.20
2019-05-19T10:08:21.260Z,143.60
2019-05-19T10:10:56.117Z,136.40
2019-05-19T10:13:24.791Z,135.97
2019-05-19T10:15:53.355Z,150.60
2019-05-19T10:18:21.677Z,178.33
2019-05-19T10:20:50.501Z,159.47
2019-05-19T10:23:21.299Z,177.30
2019-05-19T10:25:49.948Z,149.83
2019-05-19T10:28:18.256Z,140.33
2019-05-19T10:30:46.823Z,135.13
2019-05-19T10:33:15.145Z,135.00
2019-05-19T10:35:43.768Z,132.33
2019-05-19T10:38:12.193Z,129.00
2019-05-19T10:40:40.843Z,137.40
2019-05-19T10:43:09.204Z,140.83
2019-05-19T10:45:39.210Z,137.40
2019-05-19T10:48:07.922Z,131.33
2019-05-19T10:50:36.234Z,124.87
2019-05-19T10:53:05.055Z,120.20
2019-05-19T10:55:36.587Z,126.23
2019-05-19T10:58:03.386Z,128.77
2019-05-19T11:00:32.040Z,132.77
2019-05-19T11:03:00.775Z,118.83
2019-05-19T11:05:29.170Z,116.03
2019-05-19T11:07:57.675Z,115.03
2019-05-19T11:10:26.307Z,112.03
2019-05-19T11:12:54.611Z,105.83
2019-05-19T11:15:23.428Z,102.90
2019-05-19T11:17:52.061Z,101.67
2019-05-19T11:20:20.509Z,101.93
2019-05-19T11:22:49.222Z,98.60
2019-05-19T11:25:32.674Z,95.03
2019-05-19T11:27:48.180Z,85.60
2019-05-19T11:30:16.816Z,81.47
2019-05-19T11:32:45.400Z,83.97
2019-05-19T11:35:13.775Z,79.00
2019-05-19T11:37:42.087Z,75.73
2019-05-19T11:40:10.403Z,90.97
2019-05-19T11:42:39.007Z,74.50
2019-05-19T11:45:08.108Z,72.60
2019-05-19T11:47:36.791Z,72.90
2019-05-19T11:50:06.243Z,70.80
2019-05-19T11:52:34.903Z,68.60
2019-05-19T11:55:04.560Z,70.07
2019-05-19T11:57:32.871Z,69.83
2019-05-19T12:00:01.261Z,67.67
2019-05-19T12:02:29.727Z,68.10
2019-05-19T12:04:58.016Z,66.47
2019-05-19T12:07:26.599Z,65.30
2019-05-19T12:09:54.885Z,64.67
2019-05-19T12:12:23.184Z,63.37
2019-05-19T12:14:51.475Z,57.90
2019-05-19T12:17:19.858Z,57.00
2019-05-19T12:19:48.484Z,63.57
2019-05-19T12:22:17.069Z,63.37
2019-05-19T12:24:45.898Z,64.63
2019-05-19T12:27:14.259Z,61.80
2019-05-19T12:29:42.931Z,61.00
2019-05-19T12:32:11.622Z,61.73
2019-05-19T12:34:40.298Z,61.33
2019-05-19T12:37:08.603Z,62.03
2019-05-19T12:39:36.907Z,58.93
2019-05-19T12:42:05.212Z,52.70
2019-05-19T12:44:33.504Z,52.10
2019-05-19T12:47:01.844Z,51.70
2019-05-19T12:49:30.133Z,52.97
2019-05-19T12:51:58.459Z,56.83
2019-05-19T12:54:26.776Z,53.97
2019-05-19T12:56:55.135Z,52.47
2019-05-19T12:59:23.427Z,50.37
2019-05-19T13:01:52.153Z,47.47
2019-05-19T13:04:20.753Z,45.10
2019-05-19T13:06:49.519Z,43.53
2019-05-19T13:09:17.989Z,42.20
2019-05-19T13:11:46.395Z,41.20
2019-05-19T13:14:15.089Z,39.73
2019-05-19T13:16:43.780Z,44.90
2019-05-19T13:19:12.345Z,37.90
2019-05-19T13:21:40.639Z,37.07
2019-05-19T13:24:08.937Z,34.73
2019-05-19T13:26:37.227Z,35.97
2019-05-19T13:29:05.866Z,34.53
2019-05-19T13:31:34.253Z,33.70
2019-05-19T13:34:02.567Z,32.13
2019-05-19T13:36:30.968Z,34.30
2019-05-19T13:38:59.599Z,30.27
2019-05-19T13:41:27.959Z,28.93
2019-05-19T13:43:59.565Z,31.50
2019-05-19T13:46:26.878Z,28.87
2019-05-19T13:48:55.560Z,28.87
2019-05-19T13:51:23.859Z,29.00
2019-05-19T13:53:52.151Z,27.63
2019-05-19T13:56:20.792Z,27.07
2019-05-19T13:58:49.102Z,27.37
2019-05-19T14:01:28.311Z,26.87
2019-05-19T14:03:47.795Z,26.60
2019-05-19T14:06:16.355Z,26.70
2019-05-19T14:08:44.727Z,26.03
2019-05-19T14:11:13.033Z,25.80
2019-05-19T14:13:41.587Z,25.07
2019-05-19T14:16:09.881Z,25.87
2019-05-19T14:18:38.227Z,27.20
2019-05-19T14:21:06.935Z,26.37
2019-05-19T14:23:35.539Z,26.77
2019-05-19T14:26:04.208Z,26.47
2019-05-19T14:28:32.523Z,24.87
2019-05-19T14:31:01.010Z,24.53
2019-05-19T14:33:29.332Z,26.40
2019-05-19T14:35:57.642Z,24.07
2019-05-19T14:38:25.924Z,24.83
2019-05-19T14:40:54.589Z,24.47
2019-05-19T14:43:24.802Z,23.57
2019-05-19T14:45:53.404Z,23.60
2019-05-19T14:48:21.792Z,23.33
2019-05-19T14:50:50.102Z,22.03
2019-05-19T14:53:18.843Z,22.57
2019-05-19T14:55:47.408Z,22.57
2019-05-19T14:58:15.709Z,21.60
2019-05-19T15:00:44.274Z,22.57
2019-05-19T15:03:12.566Z,22.20
2019-05-19T15:05:40.924Z,21.37
2019-05-19T15:08:09.699Z,21.77
2019-05-19T15:10:38.001Z,20.20
2019-05-19T15:13:06.581Z,20.50
2019-05-19T15:15:34.883Z,20.77
2019-05-19T15:18:03.216Z,19.60
2019-05-19T15:20:31.502Z,18.93
2019-05-19T15:23:00.098Z,19.37
2019-05-19T15:25:28.410Z,20.30
2019-05-19T15:28:00.230Z,20.30
2019-05-19T15:30:27.187Z,19.37
2019-05-19T15:32:55.507Z,20.27
2019-05-19T15:35:23.883Z,18.53
2019-05-19T15:37:52.191Z,19.90
2019-05-19T15:40:20.481Z,18.33
2019-05-19T15:42:48.820Z,19.07
2019-05-19T15:45:17.175Z,18.03
2019-05-19T15:47:45.481Z,18.70
2019-05-19T15:50:13.766Z,18.30
2019-05-19T15:52:42.076Z,18.23
2019-05-19T15:55:10.367Z,19.13
2019-05-19T15:57:38.829Z,18.30
2019-05-19T16:00:07.514Z,18.23
2019-05-19T16:02:36.029Z,17.80
2019-05-19T16:05:06.164Z,17.90
2019-05-19T16:07:34.484Z,18.17
2019-05-19T16:10:03.811Z,17.93
2019-05-19T16:12:32.485Z,18.23
2019-05-19T16:15:01.113Z,16.90
2019-05-19T16:17:29.428Z,18.03
2019-05-19T16:19:57.734Z,17.30
2019-05-19T16:22:26.056Z,17.33
2019-05-19T16:24:54.348Z,17.77
2019-05-19T16:27:23.079Z,17.03
2019-05-19T16:29:51.441Z,17.27
2019-05-19T16:32:20.070Z,16.43
2019-05-19T16:34:48.365Z,18.23
2019-05-19T16:37:16.995Z,17.07
2019-05-19T16:39:45.571Z,17.07
2019-05-19T16:42:13.899Z,17.77
2019-05-19T16:44:42.539Z,21.10
2019-05-19T16:47:11.125Z,19.07
2019-05-19T16:49:39.561Z,19.40
2019-05-19T16:52:09.358Z,18.13
2019-05-19T16:54:42.531Z,17.97
2019-05-19T16:57:09.665Z,19.60
2019-05-19T16:59:38.348Z,18.00
2019-05-19T17:02:06.924Z,18.97
2019-05-19T17:04:35.518Z,21.17
2019-05-19T17:07:03.809Z,19.20
2019-05-19T17:09:32.527Z,18.73
2019-05-19T17:12:00.820Z,19.33
2019-05-19T17:14:29.145Z,17.60
2019-05-19T17:16:57.455Z,18.57
2019-05-19T17:19:25.831Z,18.10
2019-05-19T17:21:54.469Z,16.70
2019-05-19T17:24:23.162Z,17.33
2019-05-19T17:26:51.736Z,15.63
2019-05-19T17:29:20.323Z,16.33
2019-05-19T17:31:48.615Z,16.10
2019-05-19T17:34:17.283Z,15.60
2019-05-19T17:36:45.608Z,16.33
2019-05-19T17:39:14.248Z,17.17
2019-05-19T17:41:42.957Z,18.43
2019-05-19T17:44:11.256Z,18.90
2019-05-19T17:46:39.544Z,20.37
2019-05-19T17:49:08.167Z,24.73
2019-05-19T17:51:36.719Z,24.87
2019-05-19T17:54:05.183Z,25.33
2019-05-19T17:56:33.479Z,20.13
2019-05-19T17:59:15.826Z,21.33
2019-05-19T18:01:32.369Z,46.87
2019-05-19T18:04:00.673Z,33.10
2019-05-19T18:06:29.865Z,29.07
2019-05-19T18:08:58.609Z,23.70
2019-05-19T18:11:26.986Z,29.00
2019-05-19T18:13:55.543Z,40.77
2019-05-19T18:16:24.127Z,40.10
2019-05-19T18:18:52.719Z,39.37
2019-05-19T18:21:21.009Z,37.47
2019-05-19T18:23:49.324Z,35.23
2019-05-19T18:26:17.615Z,35.50
2019-05-19T18:28:46.334Z,32.50
2019-05-19T18:31:14.951Z,33.50
2019-05-19T18:33:43.257Z,38.97
2019-05-19T18:36:11.876Z,35.43
2019-05-19T18:38:40.567Z,45.50
2019-05-19T18:41:08.978Z,48.80
2019-05-19T18:43:37.637Z,48.47
2019-05-19T18:46:06.017Z,48.50
2019-05-19T18:48:34.317Z,53.37
2019-05-19T18:51:02.684Z,48.70
2019-05-19T18:53:31.265Z,50.17
2019-05-19T18:55:59.928Z,47.03
2019-05-19T18:58:28.512Z,46.90
2019-05-19T19:00:57.109Z,46.17
2019-05-19T19:03:25.490Z,46.07
2019-05-19T19:05:53.781Z,45.50
2019-05-19T19:08:23.172Z,47.40
2019-05-19T19:10:51.452Z,45.63
2019-05-19T19:13:20.226Z,45.07
2019-05-19T19:15:48.539Z,46.40
2019-05-19T19:18:16.847Z,44.00
2019-05-19T19:20:45.145Z,56.77
2019-05-19T19:23:13.459Z,80.57
2019-05-19T19:25:42.506Z,84.57
2019-05-19T19:28:10.867Z,68.87
2019-05-19T19:30:39.610Z,66.27
2019-05-19T19:33:08.482Z,67.33
2019-05-19T19:35:39.342Z,75.67
2019-05-19T19:38:06.789Z,82.60
2019-05-19T19:40:35.113Z,74.00
2019-05-19T19:43:03.419Z,98.67
2019-05-19T19:45:32.123Z,90.27
2019-05-19T19:48:00.699Z,94.40
2019-05-19T19:50:29.042Z,89.87
2019-05-19T19:52:57.972Z,90.83
2019-05-19T19:55:26.479Z,88.43
2019-05-19T19:57:54.849Z,88.33
2019-05-19T20:00:32.945Z,88.60
2019-05-19T20:03:01.257Z,86.10
2019-05-19T20:05:29.565Z,88.23
2019-05-19T20:07:57.918Z,88.77
2019-05-19T20:10:26.266Z,86.23
2019-05-19T20:12:54.561Z,84.60
2019-05-19T20:15:23.214Z,80.73
2019-05-19T20:17:51.806Z,87.13
2019-05-19T20:20:20.484Z,122.43
2019-05-19T20:22:49.072Z,138.60
2019-05-19T20:25:17.652Z,126.13
2019-05-19T20:27:46.235Z,126.37
2019-05-19T20:30:14.543Z,107.90
2019-05-19T20:32:43.103Z,97.57
2019-05-19T20:35:11.671Z,98.20
2019-05-19T20:37:39.968Z,99.27
2019-05-19T20:40:09.003Z,104.13
2019-05-19T20:42:37.317Z,102.70
2019-05-19T20:45:05.616Z,103.37
2019-05-19T20:47:33.946Z,104.43
2019-05-19T20:50:02.469Z,102.60
2019-05-19T20:52:31.152Z,102.43
2019-05-19T20:54:59.457Z,101.50
2019-05-19T20:57:27.830Z,96.40
2019-05-19T20:59:56.136Z,97.23
2019-05-19T21:02:24.759Z,98.23
2019-05-19T21:04:53.060Z,97.13
2019-05-19T21:07:21.756Z,95.40
2019-05-19T21:09:50.390Z,94.30
2019-05-19T21:12:19.111Z,93.37
2019-05-19T21:14:47.679Z,95.73
2019-05-19T21:17:16.296Z,88.47
2019-05-19T21:19:44.575Z,90.43
2019-05-19T21:22:13.327Z,85.20
2019-05-19T21:24:41.635Z,88.20
2019-05-19T21:27:09.989Z,98.27
2019-05-19T21:29:38.676Z,105.07
2019-05-19T21:32:07.227Z,97.10
2019-05-19T21:34:35.860Z,99.43
2019-05-19T21:37:04.560Z,88.40
2019-05-19T21:39:32.876Z,90.27
2019-05-19T21:42:01.196Z,92.50
2019-05-19T21:44:29.504Z,85.73
2019-05-19T21:46:58.244Z,78.23
2019-05-19T21:49:26.830Z,71.67
2019-05-19T21:51:55.137Z,72.93
2019-05-19T21:54:23.715Z,72.50
2019-05-19T21:56:52.079Z,71.27
2019-05-19T21:59:20.385Z,70.10
2019-05-19T22:01:49.135Z,67.77
2019-05-19T22:04:17.662Z,67.03
2019-05-19T22:06:47.904Z,64.70
2019-05-19T22:09:16.633Z,82.80
2019-05-19T22:11:45.214Z,94.13
2019-05-19T22:14:13.797Z,82.77
2019-05-19T22:16:42.386Z,88.53
2019-05-19T22:19:10.699Z,80.30
2019-05-19T22:21:39.063Z,67.83
2019-05-19T22:24:07.619Z,63.50
2019-05-19T22:26:35.918Z,58.27
2019-05-19T22:29:04.480Z,60.47
2019-05-19T22:31:36.978Z,59.33
2019-05-19T22:34:02.856Z,57.87
2019-05-19T22:36:31.556Z,56.17
2019-05-19T22:38:59.823Z,55.77
2019-05-19T22:41:28.143Z,55.47
2019-05-19T22:43:56.500Z,52.70
2019-05-19T22:46:25.089Z,54.53
2019-05-19T22:48:53.451Z,54.50
2019-05-19T22:51:22.847Z,52.77
2019-05-19T22:53:51.339Z,53.33
2019-05-19T22:56:19.700Z,53.30
2019-05-19T22:58:48.015Z,54.23
2019-05-19T23:01:16.321Z,53.17
2019-05-19T23:03:44.619Z,51.73
2019-05-19T23:06:12.919Z,46.23
2019-05-19T23:08:41.517Z,48.60
2019-05-19T23:11:10.053Z,47.10
2019-05-19T23:13:38.362Z,96.23
2019-05-19T23:16:07.577Z,89.43
2019-05-19T23:18:35.884Z,73.17
2019-05-19T23:21:04.251Z,75.60
2019-05-19T23:23:33.031Z,79.23
2019-05-19T23:26:01.733Z,80.37
2019-05-19T23:28:30.381Z,77.87
2019-05-19T23:30:58.697Z,76.33
2019-05-19T23:33:27.004Z,74.50
2019-05-19T23:35:55.286Z,74.33
2019-05-19T23:38:23.900Z,70.30
2019-05-19T23:40:52.478Z,62.23
2019-05-19T23:43:20.787Z,57.13
2019-05-19T23:45:49.344Z,49.73
2019-05-19T23:48:17.650Z,47.53
2019-05-19T23:50:46.201Z,46.27
2019-05-19T23:53:14.811Z,44.27
2019-05-19T23:55:43.369Z,43.00
2019-05-19T23:58:11.675Z,40.27
